createdAt,value
2018-04-12T00:00:27.525Z,995.08
2018-04-12T00:01:27.492Z,995.05
2018-04-12T00:03:20.313Z,994.96
2018-04-12T00:04:20.247Z,995.00
2018-04-12T00:06:13.564Z,994.96
2018-04-12T00:07:13.521Z,994.96
2018-04-12T00:09:06.490Z,994.98
2018-04-12T00:10:06.447Z,994.95
2018-04-12T00:11:59.283Z,994.92
2018-04-12T00:12:59.217Z,994.94
2018-04-12T00:14:52.512Z,994.90
2018-04-12T00:15:52.553Z,994.90
2018-04-12T00:17:45.783Z,994.86
2018-04-12T00:18:45.740Z,994.86
2018-04-12T00:20:38.538Z,994.82
2018-04-12T00:21:38.496Z,994.84
2018-04-12T00:23:31.470Z,994.76
2018-04-12T00:24:31.417Z,994.74
2018-04-12T00:26:24.545Z,994.69
2018-04-12T00:27:24.329Z,994.69
2018-04-12T00:29:17.299Z,994.63
2018-04-12T00:30:17.247Z,994.58
2018-04-12T00:32:10.207Z,994.53
2018-04-12T00:33:10.155Z,994.49
2018-04-12T00:35:03.132Z,994.48
2018-04-12T00:36:03.094Z,994.47
2018-04-12T00:37:57.105Z,994.43
2018-04-12T00:38:57.004Z,994.42
2018-04-12T00:40:49.967Z,994.44
2018-04-12T00:41:50.032Z,994.43
2018-04-12T00:43:43.189Z,994.44
2018-04-12T00:44:43.038Z,994.40
2018-04-12T00:46:36.000Z,994.39
2018-04-12T00:47:35.977Z,994.41
2018-04-12T00:49:28.821Z,994.38
2018-04-12T00:50:28.743Z,994.37
2018-04-12T00:52:21.712Z,994.32
2018-04-12T00:53:21.654Z,994.34
2018-04-12T00:55:14.784Z,994.35
2018-04-12T00:56:14.542Z,994.36
2018-04-12T00:58:07.380Z,994.33
2018-04-12T00:59:07.308Z,994.35
2018-04-12T01:01:00.290Z,994.31
2018-04-12T01:02:00.229Z,994.25
2018-04-12T01:03:53.191Z,994.29
2018-04-12T01:04:53.138Z,994.30
2018-04-12T01:06:46.445Z,994.27
2018-04-12T01:07:46.394Z,994.28
2018-04-12T01:09:39.219Z,994.30
2018-04-12T01:10:39.165Z,994.29
2018-04-12T01:12:32.376Z,994.26
2018-04-12T01:13:32.319Z,994.26
2018-04-12T01:15:25.306Z,994.27
2018-04-12T01:16:25.232Z,994.29
2018-04-12T01:18:18.186Z,994.28
2018-04-12T01:19:18.161Z,994.25
2018-04-12T01:21:10.978Z,994.27
2018-04-12T01:22:10.926Z,994.26
2018-04-12T01:24:04.230Z,994.25
2018-04-12T01:25:04.346Z,994.25
2018-04-12T01:26:57.160Z,994.23
2018-04-12T01:27:57.085Z,994.22
2018-04-12T01:29:50.480Z,994.21
2018-04-12T01:30:49.856Z,994.21
2018-04-12T01:32:42.752Z,994.20
2018-04-12T01:33:42.612Z,994.22
2018-04-12T01:35:35.596Z,994.17
2018-04-12T01:36:35.538Z,994.17
2018-04-12T01:38:28.491Z,994.16
2018-04-12T01:39:28.462Z,994.21
2018-04-12T01:41:21.769Z,994.21
2018-04-12T01:42:21.716Z,994.25
2018-04-12T01:44:15.038Z,994.19
2018-04-12T01:45:15.025Z,994.19
2018-04-12T01:47:07.964Z,994.19
2018-04-12T01:48:07.919Z,994.25
2018-04-12T01:50:00.892Z,994.20
2018-04-12T01:51:00.955Z,994.15
2018-04-12T01:52:54.055Z,994.17
2018-04-12T01:53:53.926Z,994.14
2018-04-12T01:55:46.892Z,994.14
2018-04-12T01:56:46.831Z,994.15
2018-04-12T01:58:39.788Z,994.10
2018-04-12T01:59:39.779Z,994.11
2018-04-12T02:01:32.970Z,994.03
2018-04-12T02:02:32.774Z,994.00
2018-04-12T02:04:25.723Z,993.99
2018-04-12T02:05:25.681Z,993.96
2018-04-12T02:07:19.147Z,993.95
2018-04-12T02:08:18.970Z,993.97
2018-04-12T02:10:11.817Z,993.94
2018-04-12T02:11:11.741Z,993.95
2018-04-12T02:13:04.701Z,993.93
2018-04-12T02:14:04.649Z,993.90
2018-04-12T02:15:57.578Z,993.85
2018-04-12T02:16:57.551Z,993.85
2018-04-12T02:18:50.591Z,993.86
2018-04-12T02:19:50.418Z,993.83
2018-04-12T02:21:43.387Z,993.78
2018-04-12T02:22:43.347Z,993.75
2018-04-12T02:24:37.656Z,993.69
2018-04-12T02:25:37.601Z,993.68
2018-04-12T02:27:30.524Z,993.67
2018-04-12T02:28:30.367Z,993.63
2018-04-12T02:30:23.177Z,993.60
2018-04-12T02:31:23.125Z,993.58
2018-04-12T02:33:16.461Z,993.51
2018-04-12T02:34:16.405Z,993.54
2018-04-12T02:36:09.392Z,993.47
2018-04-12T02:37:09.321Z,993.44
2018-04-12T02:39:02.285Z,993.46
2018-04-12T02:40:02.232Z,993.42
2018-04-12T02:41:55.211Z,993.39
2018-04-12T02:42:55.177Z,993.38
2018-04-12T02:44:48.232Z,993.29
2018-04-12T02:45:48.174Z,993.35
2018-04-12T02:47:41.152Z,993.36
2018-04-12T02:48:41.083Z,993.34
2018-04-12T02:50:33.926Z,993.34
2018-04-12T02:51:33.836Z,993.34
2018-04-12T02:53:27.258Z,993.29
2018-04-12T02:54:27.196Z,993.28
2018-04-12T02:56:20.586Z,993.23
2018-04-12T02:57:20.450Z,993.22
2018-04-12T02:59:13.425Z,993.17
2018-04-12T03:00:13.363Z,993.12
2018-04-12T03:02:06.323Z,993.16
2018-04-12T03:03:06.403Z,993.11
2018-04-12T03:04:59.566Z,993.08
2018-04-12T03:05:59.383Z,993.07
2018-04-12T03:07:52.327Z,993.09
2018-04-12T03:08:52.284Z,993.09
2018-04-12T03:10:45.628Z,993.11
2018-04-12T03:11:45.564Z,993.11
2018-04-12T03:13:38.561Z,993.08
2018-04-12T03:14:38.484Z,993.03
2018-04-12T03:16:31.928Z,993.05
2018-04-12T03:17:31.757Z,993.07
2018-04-12T03:19:24.597Z,993.08
2018-04-12T03:20:24.514Z,993.10
2018-04-12T03:22:17.808Z,993.09
2018-04-12T03:23:17.770Z,993.03
2018-04-12T03:25:10.717Z,992.99
2018-04-12T03:26:10.595Z,992.98
2018-04-12T03:28:03.541Z,992.98
2018-04-12T03:29:03.500Z,992.97
2018-04-12T03:30:56.867Z,992.99
2018-04-12T03:31:56.808Z,992.96
2018-04-12T03:33:50.103Z,992.93
2018-04-12T03:34:50.117Z,992.92
2018-04-12T03:36:43.334Z,992.91
2018-04-12T03:37:43.148Z,992.92
2018-04-12T03:39:35.984Z,992.92
2018-04-12T03:40:35.932Z,992.90
2018-04-12T03:42:28.722Z,992.85
2018-04-12T03:43:28.684Z,992.88
2018-04-12T03:45:22.181Z,992.86
2018-04-12T03:46:22.010Z,992.83
2018-04-12T03:48:14.938Z,992.77
2018-04-12T03:49:14.969Z,992.83
2018-04-12T03:51:07.901Z,992.75
2018-04-12T03:52:07.843Z,992.76
2018-04-12T03:54:00.904Z,992.71
2018-04-12T03:55:00.868Z,992.74
2018-04-12T03:56:53.823Z,992.71
2018-04-12T03:57:53.757Z,992.69
2018-04-12T03:59:46.582Z,992.71
2018-04-12T04:00:46.527Z,992.71
2018-04-12T04:02:39.517Z,992.77
2018-04-12T04:03:39.442Z,992.72
2018-04-12T04:05:32.284Z,992.75
2018-04-12T04:06:32.304Z,992.74
2018-04-12T04:08:25.557Z,992.71
2018-04-12T04:09:25.502Z,992.70
2018-04-12T04:11:18.809Z,992.71
2018-04-12T04:12:18.748Z,992.70
2018-04-12T04:14:11.568Z,992.72
2018-04-12T04:15:11.517Z,992.69
2018-04-12T04:17:04.493Z,992.64
2018-04-12T04:18:04.495Z,992.60
2018-04-12T04:19:57.300Z,992.55
2018-04-12T04:20:57.260Z,992.53
2018-04-12T04:22:50.569Z,992.54
2018-04-12T04:23:50.616Z,992.52
2018-04-12T04:25:43.787Z,992.45
2018-04-12T04:26:43.647Z,992.43
2018-04-12T04:28:36.618Z,992.41
2018-04-12T04:29:36.563Z,992.39
2018-04-12T04:31:29.497Z,992.43
2018-04-12T04:32:29.463Z,992.45
2018-04-12T04:34:22.790Z,992.41
2018-04-12T04:35:22.715Z,992.40
2018-04-12T04:37:15.549Z,992.35
2018-04-12T04:38:15.492Z,992.35
2018-04-12T04:40:08.282Z,992.35
2018-04-12T04:41:08.273Z,992.35
2018-04-12T04:43:01.514Z,992.34
2018-04-12T04:44:01.361Z,992.36
2018-04-12T04:45:54.307Z,992.36
2018-04-12T04:46:54.263Z,992.36
2018-04-12T04:48:47.217Z,992.38
2018-04-12T04:49:47.254Z,992.39
2018-04-12T04:51:40.359Z,992.36
2018-04-12T04:52:40.239Z,992.34
2018-04-12T04:54:33.250Z,992.35
2018-04-12T04:55:33.176Z,992.36
2018-04-12T04:57:26.187Z,992.37
2018-04-12T04:58:26.120Z,992.33
2018-04-12T05:00:19.420Z,992.39
2018-04-12T05:01:19.374Z,992.38
2018-04-12T05:03:12.812Z,992.41
2018-04-12T05:04:12.652Z,992.40
2018-04-12T05:06:05.595Z,992.36
2018-04-12T05:07:05.551Z,992.35
2018-04-12T05:08:58.510Z,992.33
2018-04-12T05:09:58.503Z,992.34
2018-04-12T05:11:51.655Z,992.35
2018-04-12T05:12:51.569Z,992.31
2018-04-12T05:14:44.964Z,992.29
2018-04-12T05:15:44.393Z,992.26
2018-04-12T05:17:37.279Z,992.21
2018-04-12T05:18:37.240Z,992.15
2018-04-12T05:20:30.071Z,992.16
2018-04-12T05:21:30.125Z,992.16
2018-04-12T05:23:23.203Z,992.16
2018-04-12T05:24:23.109Z,992.16
2018-04-12T05:26:16.140Z,992.18
2018-04-12T05:27:16.084Z,992.18
2018-04-12T05:29:09.439Z,992.20
2018-04-12T05:30:09.346Z,992.22
2018-04-12T05:32:02.670Z,992.26
2018-04-12T05:33:02.600Z,992.24
2018-04-12T05:34:55.707Z,992.19
2018-04-12T05:35:55.562Z,992.21
2018-04-12T05:37:48.538Z,992.19
2018-04-12T05:38:48.496Z,992.21
2018-04-12T05:40:41.851Z,992.17
2018-04-12T05:41:41.765Z,992.14
2018-04-12T05:43:34.736Z,992.16
2018-04-12T05:44:34.694Z,992.16
2018-04-12T05:46:27.631Z,992.18
2018-04-12T05:47:27.604Z,992.21
2018-04-12T05:49:20.447Z,992.19
2018-04-12T05:50:20.355Z,992.18
2018-04-12T05:52:13.357Z,992.15
2018-04-12T05:53:13.134Z,992.13
2018-04-12T05:55:06.468Z,992.17
2018-04-12T05:56:06.426Z,992.20
2018-04-12T05:57:59.575Z,992.17
2018-04-12T05:58:59.525Z,992.14
2018-04-12T06:00:52.538Z,992.14
2018-04-12T06:01:52.496Z,992.10
2018-04-12T06:03:45.736Z,992.11
2018-04-12T06:04:45.649Z,992.14
2018-04-12T06:06:38.671Z,992.15
2018-04-12T06:07:38.604Z,992.12
2018-04-12T06:09:31.975Z,992.13
2018-04-12T06:10:31.867Z,992.13
2018-04-12T06:12:24.885Z,992.16
2018-04-12T06:13:24.850Z,992.14
2018-04-12T06:15:17.826Z,992.18
2018-04-12T06:16:17.756Z,992.16
2018-04-12T06:18:10.586Z,992.16
2018-04-12T06:19:10.529Z,992.13
2018-04-12T06:21:03.363Z,992.09
2018-04-12T06:22:03.321Z,992.15
2018-04-12T06:23:56.292Z,992.18
2018-04-12T06:24:56.247Z,992.19
2018-04-12T06:26:49.842Z,992.18
2018-04-12T06:27:49.523Z,992.16
2018-04-12T06:29:43.812Z,992.11
2018-04-12T06:30:43.771Z,992.14
2018-04-12T06:32:37.093Z,992.18
2018-04-12T06:33:37.038Z,992.14
2018-04-12T06:35:29.986Z,992.13
2018-04-12T06:36:29.955Z,992.10
2018-04-12T06:38:23.193Z,992.07
2018-04-12T06:39:23.071Z,992.08
2018-04-12T06:41:16.060Z,992.08
2018-04-12T06:42:16.005Z,992.13
2018-04-12T06:44:08.967Z,992.22
2018-04-12T06:45:08.915Z,992.19
2018-04-12T06:47:01.876Z,992.25
2018-04-12T06:48:01.766Z,992.22
2018-04-12T06:49:54.570Z,992.26
2018-04-12T06:50:54.532Z,992.25
2018-04-12T06:52:47.503Z,992.21
2018-04-12T06:53:47.451Z,992.22
2018-04-12T06:55:40.396Z,992.22
2018-04-12T06:56:40.369Z,992.20
2018-04-12T06:58:33.535Z,992.11
2018-04-12T06:59:33.358Z,992.11
2018-04-12T07:01:26.351Z,992.11
2018-04-12T07:02:26.285Z,992.09
2018-04-12T07:04:19.282Z,992.12
2018-04-12T07:05:19.222Z,992.06
2018-04-12T07:07:13.158Z,992.07
2018-04-12T07:08:12.090Z,992.08
2018-04-12T07:10:05.417Z,992.04
2018-04-12T07:11:05.991Z,992.04
2018-04-12T07:12:58.610Z,992.03
2018-04-12T07:13:58.455Z,992.04
2018-04-12T07:15:51.791Z,992.05
2018-04-12T07:16:51.730Z,992.08
2018-04-12T07:18:44.564Z,992.03
2018-04-12T07:19:44.509Z,992.01
2018-04-12T07:21:37.465Z,992.01
2018-04-12T07:22:37.427Z,991.99
2018-04-12T07:24:30.439Z,991.92
2018-04-12T07:25:30.395Z,991.94
2018-04-12T07:27:24.684Z,991.82
2018-04-12T07:28:24.646Z,991.73
2018-04-12T07:30:17.470Z,991.72
2018-04-12T07:31:17.411Z,991.76
2018-04-12T07:33:10.847Z,991.77
2018-04-12T07:34:10.682Z,991.65
2018-04-12T07:36:03.668Z,991.65
2018-04-12T07:37:03.607Z,991.68
2018-04-12T07:38:56.556Z,991.76
2018-04-12T07:39:56.511Z,991.75
2018-04-12T07:41:49.891Z,991.70
2018-04-12T07:42:49.791Z,991.69
2018-04-12T07:44:43.220Z,991.77
2018-04-12T07:45:43.065Z,991.81
2018-04-12T07:47:36.036Z,991.82
2018-04-12T07:48:35.992Z,991.83
2018-04-12T07:50:28.827Z,991.82
2018-04-12T07:51:28.744Z,991.83
2018-04-12T07:53:21.556Z,991.86
2018-04-12T07:54:21.609Z,991.88
2018-04-12T07:56:14.796Z,991.90
2018-04-12T07:57:14.605Z,991.84
2018-04-12T07:59:07.565Z,991.82
2018-04-12T08:00:07.524Z,991.83
2018-04-12T08:02:00.961Z,991.91
2018-04-12T08:03:00.815Z,991.92
2018-04-12T08:04:54.127Z,991.98
2018-04-12T08:05:54.123Z,991.98
2018-04-12T08:07:47.316Z,991.97
2018-04-12T08:08:47.192Z,991.95
2018-04-12T08:10:40.181Z,991.98
2018-04-12T08:11:40.128Z,992.01
2018-04-12T08:13:33.459Z,991.93
2018-04-12T08:14:33.398Z,991.94
2018-04-12T08:16:26.403Z,991.93
2018-04-12T08:17:26.397Z,991.91
2018-04-12T08:19:19.291Z,991.84
2018-04-12T08:20:19.265Z,991.83
2018-04-12T08:22:12.369Z,991.80
2018-04-12T08:23:12.119Z,991.81
2018-04-12T08:25:05.088Z,991.75
2018-04-12T08:26:05.053Z,991.79
2018-04-12T08:27:58.029Z,991.65
2018-04-12T08:28:58.019Z,991.61
2018-04-12T08:30:51.182Z,991.57
2018-04-12T08:31:51.118Z,991.58
2018-04-12T08:33:44.125Z,991.58
2018-04-12T08:34:44.058Z,991.55
2018-04-12T08:36:36.998Z,991.52
2018-04-12T08:37:36.967Z,991.53
2018-04-12T08:39:30.052Z,991.50
2018-04-12T08:40:29.836Z,991.48
2018-04-12T08:42:22.841Z,991.51
2018-04-12T08:43:22.773Z,991.55
2018-04-12T08:45:15.829Z,991.58
2018-04-12T08:46:15.793Z,991.60
2018-04-12T08:48:08.941Z,991.58
2018-04-12T08:49:08.672Z,991.57
2018-04-12T08:51:01.694Z,991.61
2018-04-12T08:52:01.666Z,991.59
2018-04-12T08:53:54.626Z,991.54
2018-04-12T08:54:54.593Z,991.50
2018-04-12T08:56:47.675Z,991.52
2018-04-12T08:57:47.638Z,991.59
2018-04-12T08:59:40.466Z,991.55
2018-04-12T09:00:40.409Z,991.52
2018-04-12T09:02:33.400Z,991.52
2018-04-12T09:03:33.484Z,991.47
2018-04-12T09:05:26.540Z,991.42
2018-04-12T09:06:26.448Z,991.39
2018-04-12T09:08:19.424Z,991.43
2018-04-12T09:09:19.365Z,991.43
2018-04-12T09:11:12.359Z,991.44
2018-04-12T09:12:12.420Z,991.41
2018-04-12T09:14:05.545Z,991.40
2018-04-12T09:15:05.470Z,991.40
2018-04-12T09:16:58.326Z,991.38
2018-04-12T09:17:58.254Z,991.40
2018-04-12T09:19:52.655Z,991.39
2018-04-12T09:20:51.581Z,991.44
2018-04-12T09:22:45.498Z,991.43
2018-04-12T09:23:44.549Z,991.46
2018-04-12T09:25:37.602Z,991.42
2018-04-12T09:26:37.594Z,991.38
2018-04-12T09:28:30.524Z,991.32
2018-04-12T09:29:30.417Z,991.35
2018-04-12T09:31:23.996Z,991.35
2018-04-12T09:32:23.414Z,991.32
2018-04-12T09:34:16.835Z,991.28
2018-04-12T09:35:17.337Z,991.34
2018-04-12T09:37:10.173Z,991.31
2018-04-12T09:38:10.039Z,991.32
2018-04-12T09:40:03.056Z,991.27
2018-04-12T09:41:02.849Z,991.29
2018-04-12T09:42:55.822Z,991.25
2018-04-12T09:43:55.789Z,991.23
2018-04-12T09:45:48.789Z,991.28
2018-04-12T09:46:48.711Z,991.29
2018-04-12T09:48:42.020Z,991.36
2018-04-12T09:49:42.001Z,991.40
2018-04-12T09:51:35.471Z,991.50
2018-04-12T09:52:35.304Z,991.57
2018-04-12T09:54:28.580Z,991.61
2018-04-12T09:55:28.571Z,991.61
2018-04-12T09:57:21.896Z,991.75
2018-04-12T09:58:21.850Z,991.82
2018-04-12T10:00:15.341Z,991.76
2018-04-12T10:01:15.120Z,991.81
2018-04-12T10:03:09.031Z,991.89
2018-04-12T10:04:08.414Z,991.79
2018-04-12T10:06:01.760Z,991.66
2018-04-12T10:07:01.694Z,991.63
2018-04-12T10:08:55.073Z,991.40
2018-04-12T10:09:54.984Z,991.35
2018-04-12T10:11:48.346Z,991.35
2018-04-12T10:12:48.288Z,991.34
2018-04-12T10:14:41.602Z,991.49
2018-04-12T10:15:41.577Z,991.48
2018-04-12T10:17:34.581Z,991.57
2018-04-12T10:18:34.522Z,991.51
2018-04-12T10:20:27.852Z,991.64
2018-04-12T10:21:27.821Z,991.51
2018-04-12T10:23:21.266Z,991.64
2018-04-12T10:24:21.097Z,991.65
2018-04-12T10:26:14.209Z,991.62
2018-04-12T10:27:14.151Z,991.55
2018-04-12T10:29:07.492Z,991.57
2018-04-12T10:30:07.440Z,991.55
2018-04-12T10:32:01.004Z,991.59
2018-04-12T10:33:00.821Z,991.64
2018-04-12T10:34:54.122Z,991.58
2018-04-12T10:35:54.110Z,991.60
2018-04-12T10:37:47.434Z,991.66
2018-04-12T10:38:47.384Z,991.65
2018-04-12T10:40:40.405Z,991.72
2018-04-12T10:41:40.389Z,991.70
2018-04-12T10:43:33.202Z,991.78
2018-04-12T10:44:33.186Z,991.80
2018-04-12T10:46:26.175Z,991.84
2018-04-12T10:47:26.119Z,991.86
2018-04-12T10:49:19.096Z,991.84
2018-04-12T10:50:19.169Z,991.85
2018-04-12T10:52:12.396Z,991.79
2018-04-12T10:53:12.177Z,991.82
2018-04-12T10:55:05.143Z,991.86
2018-04-12T10:56:05.106Z,991.84
2018-04-12T10:57:58.090Z,991.82
2018-04-12T10:58:58.052Z,991.76
2018-04-12T11:00:50.879Z,991.80
2018-04-12T11:01:50.857Z,991.74
2018-04-12T11:03:43.699Z,991.75
2018-04-12T11:04:43.641Z,991.77
2018-04-12T11:06:36.615Z,991.79
2018-04-12T11:07:36.568Z,991.78
2018-04-12T11:09:29.547Z,991.80
2018-04-12T11:10:29.496Z,991.81
2018-04-12T11:12:22.725Z,991.88
2018-04-12T11:13:22.601Z,991.81
2018-04-12T11:15:15.552Z,991.93
2018-04-12T11:16:15.528Z,991.95
2018-04-12T11:18:08.534Z,992.04
2018-04-12T11:19:08.492Z,992.10
2018-04-12T11:21:01.422Z,992.09
2018-04-12T11:22:01.278Z,992.15
2018-04-12T11:23:54.293Z,992.20
2018-04-12T11:24:54.254Z,992.16
2018-04-12T11:26:47.444Z,992.10
2018-04-12T11:27:47.252Z,991.97
2018-04-12T11:29:40.390Z,991.91
2018-04-12T11:30:40.184Z,991.92
2018-04-12T11:32:33.147Z,991.87
2018-04-12T11:33:33.130Z,991.96
2018-04-12T11:35:26.122Z,991.87
2018-04-12T11:36:26.095Z,991.84
2018-04-12T11:38:19.276Z,992.04
2018-04-12T11:39:19.243Z,992.06
2018-04-12T11:41:12.276Z,991.93
2018-04-12T11:42:12.301Z,991.77
2018-04-12T11:44:05.428Z,991.88
2018-04-12T11:45:05.360Z,991.96
2018-04-12T11:46:58.346Z,991.98
2018-04-12T11:47:58.316Z,991.99
2018-04-12T11:49:51.361Z,991.95
2018-04-12T11:50:51.251Z,991.97
2018-04-12T11:52:44.112Z,991.90
2018-04-12T11:53:44.058Z,991.90
2018-04-12T11:55:37.057Z,991.84
2018-04-12T11:56:37.003Z,991.81
2018-04-12T11:58:30.073Z,991.68
2018-04-12T11:59:30.033Z,991.64
2018-04-12T12:01:23.167Z,991.73
2018-04-12T12:02:23.211Z,991.63
2018-04-12T12:04:16.179Z,991.66
2018-04-12T12:05:16.132Z,991.68
2018-04-12T12:07:09.092Z,991.66
2018-04-12T12:08:09.087Z,991.59
2018-04-12T12:10:02.088Z,991.53
2018-04-12T12:11:01.877Z,991.62
2018-04-12T12:12:54.877Z,991.62
2018-04-12T12:13:54.868Z,991.59
2018-04-12T12:15:47.718Z,991.63
2018-04-12T12:16:47.745Z,991.62
2018-04-12T12:18:40.891Z,991.57
2018-04-12T12:19:40.807Z,991.62
2018-04-12T12:21:33.803Z,991.62
2018-04-12T12:22:33.773Z,991.78
2018-04-12T12:24:26.733Z,991.70
2018-04-12T12:25:26.706Z,991.66
2018-04-12T12:27:19.713Z,991.63
2018-04-12T12:28:19.551Z,991.67
2018-04-12T12:30:12.422Z,991.67
2018-04-12T12:31:12.358Z,991.77
2018-04-12T12:33:05.378Z,991.73
2018-04-12T12:34:05.403Z,991.82
2018-04-12T12:35:58.669Z,991.67
2018-04-12T12:36:58.514Z,991.65
2018-04-12T12:38:51.488Z,991.48
2018-04-12T12:39:51.477Z,991.45
2018-04-12T12:41:44.327Z,991.49
2018-04-12T12:42:44.307Z,991.52
2018-04-12T12:44:37.482Z,991.44
2018-04-12T12:45:37.463Z,991.48
2018-04-12T12:47:30.601Z,991.50
2018-04-12T12:48:30.561Z,991.47
2018-04-12T12:50:23.755Z,991.43
2018-04-12T12:51:23.510Z,991.43
2018-04-12T12:53:16.498Z,991.18
2018-04-12T12:54:16.476Z,991.25
2018-04-12T12:56:09.489Z,991.28
2018-04-12T12:57:09.432Z,991.33
2018-04-12T12:59:02.456Z,991.11
2018-04-12T13:00:02.326Z,991.02
2018-04-12T13:01:55.354Z,991.00
2018-04-12T13:02:55.314Z,991.06
2018-04-12T13:04:48.380Z,991.12
2018-04-12T13:05:48.362Z,991.09
2018-04-12T13:07:41.383Z,991.12
2018-04-12T13:08:41.184Z,991.04
2018-04-12T13:10:34.060Z,991.08
2018-04-12T13:11:33.981Z,991.01
2018-04-12T13:13:26.871Z,991.02
2018-04-12T13:14:26.844Z,991.10
2018-04-12T13:16:19.824Z,990.97
2018-04-12T13:17:19.831Z,990.78
2018-04-12T13:19:12.885Z,990.94
2018-04-12T13:20:12.859Z,990.87
2018-04-12T13:22:05.874Z,990.73
2018-04-12T13:23:05.805Z,990.76
2018-04-12T13:24:59.133Z,990.69
2018-04-12T13:25:58.949Z,990.80
2018-04-12T13:27:52.004Z,990.53
2018-04-12T13:28:51.939Z,990.48
2018-04-12T13:30:44.953Z,990.72
2018-04-12T13:31:44.944Z,990.78
2018-04-12T13:33:38.000Z,990.94
2018-04-12T13:34:37.801Z,990.88
2018-04-12T13:36:30.837Z,990.84
2018-04-12T13:37:30.789Z,990.87
2018-04-12T13:39:23.782Z,990.93
2018-04-12T13:40:23.733Z,990.96
2018-04-12T13:42:16.600Z,991.03
2018-04-12T13:43:16.546Z,991.03
2018-04-12T13:45:09.525Z,991.14
2018-04-12T13:46:09.512Z,991.12
2018-04-12T13:48:02.489Z,991.10
2018-04-12T13:49:02.456Z,991.10
2018-04-12T13:50:55.636Z,990.96
2018-04-12T13:51:55.612Z,990.92
2018-04-12T13:53:48.595Z,990.87
2018-04-12T13:54:48.561Z,990.90
2018-04-12T13:56:41.540Z,990.91
2018-04-12T13:57:41.496Z,990.93
2018-04-12T13:59:34.476Z,990.79
2018-04-12T14:00:34.278Z,990.87
2018-04-12T14:02:27.313Z,990.83
2018-04-12T14:03:27.253Z,990.69
2018-04-12T14:05:20.223Z,990.90
2018-04-12T14:06:20.230Z,991.00
2018-04-12T14:08:13.414Z,990.98
2018-04-12T14:09:13.314Z,990.94
2018-04-12T14:11:06.327Z,990.86
2018-04-12T14:12:06.462Z,990.89
2018-04-12T14:13:59.391Z,990.90
2018-04-12T14:14:59.352Z,990.74
2018-04-12T14:16:52.366Z,990.64
2018-04-12T14:17:52.321Z,990.80
2018-04-12T14:19:45.418Z,990.80
2018-04-12T14:20:45.349Z,990.84
2018-04-12T14:22:38.306Z,990.85
2018-04-12T14:23:38.215Z,990.85
2018-04-12T14:25:31.212Z,990.80
2018-04-12T14:26:31.160Z,990.82
2018-04-12T14:28:24.150Z,990.77
2018-04-12T14:29:24.231Z,990.80
2018-04-12T14:31:16.984Z,990.71
2018-04-12T14:32:16.940Z,990.76
2018-04-12T14:34:09.785Z,990.77
2018-04-12T14:35:09.777Z,990.80
2018-04-12T14:37:02.769Z,990.80
2018-04-12T14:38:02.684Z,990.84
2018-04-12T14:39:55.694Z,990.86
2018-04-12T14:40:55.706Z,990.87
2018-04-12T14:42:48.563Z,990.86
2018-04-12T14:43:48.547Z,990.84
2018-04-12T14:45:41.541Z,990.82
2018-04-12T14:46:41.482Z,990.83
2018-04-12T14:48:34.445Z,990.88
2018-04-12T14:49:34.406Z,990.87
2018-04-12T14:51:27.671Z,990.84
2018-04-12T14:52:27.562Z,990.87
2018-04-12T14:54:20.553Z,990.80
2018-04-12T14:55:20.505Z,990.89
2018-04-12T14:57:13.909Z,990.92
2018-04-12T14:58:13.788Z,990.93
2018-04-12T15:00:06.611Z,990.99
2018-04-12T15:01:06.565Z,991.01
2018-04-12T15:02:59.587Z,991.08
2018-04-12T15:03:59.579Z,991.09
2018-04-12T15:05:52.819Z,991.08
2018-04-12T15:06:52.705Z,991.14
2018-04-12T15:08:45.708Z,991.15
2018-04-12T15:09:45.642Z,991.13
2018-04-12T15:11:38.653Z,991.11
2018-04-12T15:12:38.600Z,991.07
2018-04-12T15:14:31.562Z,991.04
2018-04-12T15:15:31.444Z,991.03
2018-04-12T15:17:24.415Z,990.97
2018-04-12T15:18:24.384Z,990.98
2018-04-12T15:20:17.195Z,990.92
2018-04-12T15:21:17.167Z,990.92
2018-04-12T15:23:10.362Z,990.87
2018-04-12T15:24:10.319Z,990.94
2018-04-12T15:26:03.349Z,990.91
2018-04-12T15:27:03.276Z,990.84
2018-04-12T15:28:56.275Z,990.80
2018-04-12T15:29:56.247Z,990.77
2018-04-12T15:31:49.106Z,990.77
2018-04-12T15:32:49.075Z,990.78
2018-04-12T15:34:42.038Z,990.77
2018-04-12T15:35:42.046Z,990.77
2018-04-12T15:37:34.996Z,990.81
2018-04-12T15:38:35.038Z,990.79
2018-04-12T15:40:27.768Z,990.80
2018-04-12T15:41:27.749Z,990.81
2018-04-12T15:43:20.669Z,990.83
2018-04-12T15:44:20.585Z,990.81
2018-04-12T15:46:14.532Z,990.81
2018-04-12T15:47:14.517Z,990.86
2018-04-12T15:49:07.544Z,990.89
2018-04-12T15:50:07.514Z,990.92
2018-04-12T15:52:00.836Z,990.92
2018-04-12T15:53:00.758Z,990.95
2018-04-12T15:54:53.771Z,990.98
2018-04-12T15:55:53.746Z,990.97
2018-04-12T15:57:46.565Z,990.93
2018-04-12T15:58:46.510Z,991.01
2018-04-12T16:00:39.529Z,991.01
2018-04-12T16:01:39.471Z,990.99
2018-04-12T16:03:32.475Z,991.05
2018-04-12T16:04:32.433Z,991.04
2018-04-12T16:06:25.494Z,991.08
2018-04-12T16:07:25.460Z,991.07
2018-04-12T16:09:18.470Z,991.12
2018-04-12T16:10:18.407Z,991.12
2018-04-12T16:12:11.391Z,991.16
2018-04-12T16:13:11.421Z,991.14
2018-04-12T16:15:04.621Z,991.15
2018-04-12T16:16:04.464Z,991.23
2018-04-12T16:17:57.405Z,991.33
2018-04-12T16:18:57.371Z,991.33
2018-04-12T16:20:50.367Z,991.26
2018-04-12T16:21:50.322Z,991.25
2018-04-12T16:23:43.515Z,991.17
2018-04-12T16:24:43.253Z,991.17
2018-04-12T16:26:36.239Z,991.19
2018-04-12T16:27:36.228Z,991.15
2018-04-12T16:29:29.259Z,991.15
2018-04-12T16:30:29.234Z,991.16
2018-04-12T16:32:22.058Z,991.25
2018-04-12T16:33:22.033Z,991.32
2018-04-12T16:35:15.071Z,991.36
2018-04-12T16:36:15.016Z,991.29
2018-04-12T16:38:08.001Z,991.26
2018-04-12T16:39:08.002Z,991.25
2018-04-12T16:41:01.234Z,991.28
2018-04-12T16:42:01.128Z,991.38
2018-04-12T16:43:54.113Z,991.38
2018-04-12T16:44:54.062Z,991.31
2018-04-12T16:46:47.372Z,991.41
2018-04-12T16:47:47.212Z,991.43
2018-04-12T16:49:40.227Z,991.47
2018-04-12T16:50:40.178Z,991.40
2018-04-12T16:52:33.212Z,991.45
2018-04-12T16:53:33.140Z,991.47
2018-04-12T16:55:26.064Z,991.47
2018-04-12T16:56:26.020Z,991.45
2018-04-12T16:58:19.030Z,991.52
2018-04-12T16:59:18.971Z,991.48
2018-04-12T17:01:11.985Z,991.56
2018-04-12T17:02:11.953Z,991.62
2018-04-12T17:04:05.073Z,991.64
2018-04-12T17:05:05.045Z,991.60
2018-04-12T17:06:58.046Z,991.59
2018-04-12T17:07:58.000Z,991.63
2018-04-12T17:09:50.814Z,991.60
2018-04-12T17:10:50.767Z,991.63
2018-04-12T17:12:44.012Z,991.59
2018-04-12T17:13:43.953Z,991.63
2018-04-12T17:15:36.933Z,991.67
2018-04-12T17:16:37.008Z,991.63
2018-04-12T17:18:30.243Z,991.68
2018-04-12T17:19:30.174Z,991.69
2018-04-12T17:21:23.193Z,991.73
2018-04-12T17:22:23.189Z,991.74
2018-04-12T17:24:16.373Z,991.75
2018-04-12T17:25:16.293Z,991.71
2018-04-12T17:27:09.314Z,991.75
2018-04-12T17:28:09.268Z,991.73
2018-04-12T17:30:02.287Z,991.74
2018-04-12T17:31:02.229Z,991.70
2018-04-12T17:32:55.023Z,991.72
2018-04-12T17:33:54.995Z,991.73
2018-04-12T17:35:47.991Z,991.74
2018-04-12T17:36:47.944Z,991.73
2018-04-12T17:38:40.934Z,991.79
2018-04-12T17:39:40.953Z,991.77
2018-04-12T17:41:33.737Z,991.82
2018-04-12T17:42:33.682Z,991.91
2018-04-12T17:44:26.522Z,991.90
2018-04-12T17:45:26.459Z,991.90
2018-04-12T17:47:19.501Z,991.89
2018-04-12T17:48:19.420Z,991.94
2018-04-12T17:50:12.250Z,991.95
2018-04-12T17:51:12.213Z,991.97
2018-04-12T17:53:05.224Z,992.01
2018-04-12T17:54:05.159Z,992.05
2018-04-12T17:55:58.280Z,992.08
2018-04-12T17:56:58.241Z,992.08
2018-04-12T17:58:51.270Z,992.10